sensor_id;sensor_type;location;lat;lon;timestamp;P1;durP1;ratioP1;P2;durP2;ratioP2
8260;SDS011;64115;50.170;8.242;2023-02-08T00:00:58;3.80;;;3.17;;
8260;SDS011;64115;50.170;8.242;2023-02-08T00:03:26;5.33;;;2.87;;
8260;SDS011;64115;50.170;8.242;2023-02-08T00:05:53;3.10;;;2.80;;
8260;SDS011;64115;50.170;8.242;2023-02-08T00:08:20;3.23;;;2.90;;
8260;SDS011;64115;50.170;8.242;2023-02-08T00:10:46;2.83;;;2.63;;
8260;SDS011;64115;50.170;8.242;2023-02-08T00:13:18;4.50;;;3.40;;
8260;SDS011;64115;50.170;8.242;2023-02-08T00:15:45;3.50;;;3.00;;
8260;SDS011;64115;50.170;8.242;2023-02-08T00:18:13;3.73;;;2.90;;
8260;SDS011;64115;50.170;8.242;2023-02-08T00:20:40;2.80;;;2.60;;
8260;SDS011;64115;50.170;8.242;2023-02-08T00:23:08;4.47;;;3.10;;
8260;SDS011;64115;50.170;8.242;2023-02-08T00:25:35;3.17;;;2.87;;
8260;SDS011;64115;50.170;8.242;2023-02-08T00:28:03;4.17;;;2.97;;
8260;SDS011;64115;50.170;8.242;2023-02-08T00:30:32;3.20;;;2.90;;
8260;SDS011;64115;50.170;8.242;2023-02-08T00:32:59;4.53;;;3.17;;
8260;SDS011;64115;50.170;8.242;2023-02-08T00:35:27;3.43;;;3.10;;
8260;SDS011;64115;50.170;8.242;2023-02-08T00:37:54;3.73;;;2.97;;
8260;SDS011;64115;50.170;8.242;2023-02-08T00:40:21;5.20;;;3.17;;
8260;SDS011;64115;50.170;8.242;2023-02-08T00:42:48;3.30;;;3.00;;
8260;SDS011;64115;50.170;8.242;2023-02-08T00:45:16;3.50;;;3.03;;
8260;SDS011;64115;50.170;8.242;2023-02-08T00:47:44;3.40;;;3.10;;
8260;SDS011;64115;50.170;8.242;2023-02-08T00:50:11;5.07;;;3.30;;
8260;SDS011;64115;50.170;8.242;2023-02-08T00:52:39;4.50;;;3.10;;
8260;SDS011;64115;50.170;8.242;2023-02-08T00:55:06;4.23;;;3.30;;
8260;SDS011;64115;50.170;8.242;2023-02-08T00:57:33;3.03;;;2.77;;
8260;SDS011;64115;50.170;8.242;2023-02-08T01:00:01;3.50;;;3.03;;
8260;SDS011;64115;50.170;8.242;2023-02-08T01:02:29;2.93;;;2.67;;
8260;SDS011;64115;50.170;8.242;2023-02-08T01:04:58;3.57;;;3.00;;
8260;SDS011;64115;50.170;8.242;2023-02-08T01:07:25;4.80;;;3.00;;
8260;SDS011;64115;50.170;8.242;2023-02-08T01:09:53;3.10;;;2.80;;
8260;SDS011;64115;50.170;8.242;2023-02-08T01:12:20;3.83;;;3.23;;
8260;SDS011;64115;50.170;8.242;2023-02-08T01:14:48;3.33;;;2.40;;
8260;SDS011;64115;50.170;8.242;2023-02-08T01:17:16;4.40;;;3.10;;
8260;SDS011;64115;50.170;8.242;2023-02-08T01:19:43;2.97;;;2.60;;
8260;SDS011;64115;50.170;8.242;2023-02-08T01:22:11;4.00;;;3.30;;
8260;SDS011;64115;50.170;8.242;2023-02-08T01:24:38;5.17;;;3.17;;
8260;SDS011;64115;50.170;8.242;2023-02-08T01:27:05;3.10;;;2.80;;
8260;SDS011;64115;50.170;8.242;2023-02-08T01:29:32;3.20;;;2.90;;
8260;SDS011;64115;50.170;8.242;2023-02-08T01:31:59;3.70;;;2.87;;
8260;SDS011;64115;50.170;8.242;2023-02-08T01:34:26;5.10;;;3.10;;
8260;SDS011;64115;50.170;8.242;2023-02-08T01:36:54;4.50;;;3.17;;
8260;SDS011;64115;50.170;8.242;2023-02-08T01:39:23;4.10;;;3.00;;
8260;SDS011;64115;50.170;8.242;2023-02-08T01:41:50;3.10;;;2.77;;
8260;SDS011;64115;50.170;8.242;2023-02-08T01:47:22;4.70;;;3.13;;
8260;SDS011;64115;50.170;8.242;2023-02-08T01:49:49;4.10;;;3.00;;
8260;SDS011;64115;50.170;8.242;2023-02-08T01:52:17;3.27;;;2.97;;
8260;SDS011;64115;50.170;8.242;2023-02-08T01:54:52;4.13;;;3.30;;
8260;SDS011;64115;50.170;8.242;2023-02-08T01:57:22;3.73;;;3.10;;
8260;SDS011;64115;50.170;8.242;2023-02-08T01:59:52;3.70;;;3.17;;
8260;SDS011;64115;50.170;8.242;2023-02-08T02:02:22;3.43;;;3.10;;
8260;SDS011;64115;50.170;8.242;2023-02-08T02:04:50;3.37;;;3.07;;
8260;SDS011;64115;50.170;8.242;2023-02-08T02:07:19;4.03;;;2.93;;
8260;SDS011;64115;50.170;8.242;2023-02-08T02:09:48;3.33;;;3.03;;
8260;SDS011;64115;50.170;8.242;2023-02-08T02:12:21;4.73;;;2.90;;
8260;SDS011;64115;50.170;8.242;2023-02-08T02:14:50;5.00;;;3.40;;
8260;SDS011;64115;50.170;8.242;2023-02-08T02:17:18;4.00;;;3.13;;
8260;SDS011;64115;50.170;8.242;2023-02-08T02:19:48;3.10;;;2.70;;
8260;SDS011;64115;50.170;8.242;2023-02-08T02:28:20;3.63;;;3.33;;
8260;SDS011;64115;50.170;8.242;2023-02-08T02:34:18;3.60;;;3.23;;
8260;SDS011;64115;50.170;8.242;2023-02-08T02:36:53;3.53;;;2.87;;
8260;SDS011;64115;50.170;8.242;2023-02-08T02:39:26;4.03;;;3.40;;
8260;SDS011;64115;50.170;8.242;2023-02-08T02:42:03;3.60;;;3.30;;
8260;SDS011;64115;50.170;8.242;2023-02-08T02:44:57;5.17;;;3.40;;
8260;SDS011;64115;50.170;8.242;2023-02-08T02:47:34;3.33;;;3.03;;
8260;SDS011;64115;50.170;8.242;2023-02-08T02:50:08;5.43;;;3.40;;
8260;SDS011;64115;50.170;8.242;2023-02-08T02:52:44;3.83;;;3.00;;
8260;SDS011;64115;50.170;8.242;2023-02-08T02:55:17;4.97;;;3.30;;
8260;SDS011;64115;50.170;8.242;2023-02-08T02:57:48;3.77;;;3.17;;
8260;SDS011;64115;50.170;8.242;2023-02-08T03:00:18;4.53;;;3.40;;
8260;SDS011;64115;50.170;8.242;2023-02-08T03:02:50;3.73;;;3.20;;
8260;SDS011;64115;50.170;8.242;2023-02-08T03:05:19;5.30;;;3.13;;
8260;SDS011;64115;50.170;8.242;2023-02-08T03:08:01;4.33;;;3.10;;
8260;SDS011;64115;50.170;8.242;2023-02-08T03:10:47;4.00;;;3.30;;
8260;SDS011;64115;50.170;8.242;2023-02-08T03:13:31;3.63;;;3.20;;
8260;SDS011;64115;50.170;8.242;2023-02-08T03:16:09;5.37;;;3.93;;
8260;SDS011;64115;50.170;8.242;2023-02-08T03:18:46;4.53;;;3.43;;
8260;SDS011;64115;50.170;8.242;2023-02-08T03:21:28;4.43;;;3.30;;
8260;SDS011;64115;50.170;8.242;2023-02-08T03:24:04;4.30;;;3.50;;
8260;SDS011;64115;50.170;8.242;2023-02-08T03:26:43;4.27;;;3.47;;
8260;SDS011;64115;50.170;8.242;2023-02-08T03:29:21;3.87;;;3.37;;
8260;SDS011;64115;50.170;8.242;2023-02-08T03:31:58;3.70;;;3.30;;
8260;SDS011;64115;50.170;8.242;2023-02-08T03:34:32;3.97;;;3.57;;
8260;SDS011;64115;50.170;8.242;2023-02-08T03:37:06;3.80;;;3.50;;
8260;SDS011;64115;50.170;8.242;2023-02-08T03:39:36;4.37;;;3.47;;
8260;SDS011;64115;50.170;8.242;2023-02-08T03:42:08;4.70;;;3.40;;
8260;SDS011;64115;50.170;8.242;2023-02-08T03:44:40;4.97;;;3.80;;
8260;SDS011;64115;50.170;8.242;2023-02-08T03:47:12;3.57;;;3.23;;
8260;SDS011;64115;50.170;8.242;2023-02-08T03:49:44;4.57;;;3.60;;
8260;SDS011;64115;50.170;8.242;2023-02-08T03:52:14;3.73;;;3.30;;
8260;SDS011;64115;50.170;8.242;2023-02-08T03:54:41;5.83;;;3.80;;
8260;SDS011;64115;50.170;8.242;2023-02-08T03:57:15;3.50;;;3.20;;
8260;SDS011;64115;50.170;8.242;2023-02-08T03:59:47;6.87;;;3.87;;
8260;SDS011;64115;50.170;8.242;2023-02-08T04:02:19;3.93;;;3.47;;
8260;SDS011;64115;50.170;8.242;2023-02-08T04:04:50;4.50;;;3.40;;
8260;SDS011;64115;50.170;8.242;2023-02-08T04:07:18;4.43;;;3.73;;
8260;SDS011;64115;50.170;8.242;2023-02-08T04:09:46;4.83;;;3.67;;
8260;SDS011;64115;50.170;8.242;2023-02-08T04:12:13;4.43;;;3.40;;
8260;SDS011;64115;50.170;8.242;2023-02-08T04:14:40;5.40;;;3.60;;
8260;SDS011;64115;50.170;8.242;2023-02-08T04:17:07;4.63;;;3.40;;
8260;SDS011;64115;50.170;8.242;2023-02-08T04:19:34;4.87;;;3.50;;
8260;SDS011;64115;50.170;8.242;2023-02-08T04:22:03;5.50;;;4.10;;
8260;SDS011;64115;50.170;8.242;2023-02-08T04:24:29;3.90;;;3.37;;
8260;SDS011;64115;50.170;8.242;2023-02-08T04:26:56;5.67;;;4.10;;
8260;SDS011;64115;50.170;8.242;2023-02-08T04:29:23;3.97;;;3.57;;
8260;SDS011;64115;50.170;8.242;2023-02-08T04:31:50;4.53;;;3.60;;
8260;SDS011;64115;50.170;8.242;2023-02-08T04:34:17;5.67;;;3.67;;
8260;SDS011;64115;50.170;8.242;2023-02-08T04:36:44;3.90;;;3.50;;
8260;SDS011;64115;50.170;8.242;2023-02-08T04:39:13;4.77;;;3.93;;
8260;SDS011;64115;50.170;8.242;2023-02-08T04:41:40;5.03;;;3.90;;
8260;SDS011;64115;50.170;8.242;2023-02-08T04:44:07;3.77;;;3.37;;
8260;SDS011;64115;50.170;8.242;2023-02-08T04:46:34;3.70;;;3.37;;
8260;SDS011;64115;50.170;8.242;2023-02-08T04:49:02;4.27;;;3.47;;
8260;SDS011;64115;50.170;8.242;2023-02-08T04:51:29;4.87;;;3.67;;
8260;SDS011;64115;50.170;8.242;2023-02-08T04:53:56;6.10;;;3.60;;
8260;SDS011;64115;50.170;8.242;2023-02-08T04:56:28;5.80;;;3.77;;
8260;SDS011;64115;50.170;8.242;2023-02-08T04:58:55;4.13;;;3.50;;
8260;SDS011;64115;50.170;8.242;2023-02-08T05:01:23;7.77;;;4.03;;
8260;SDS011;64115;50.170;8.242;2023-02-08T05:03:50;3.73;;;3.40;;
8260;SDS011;64115;50.170;8.242;2023-02-08T05:06:19;5.07;;;3.37;;
8260;SDS011;64115;50.170;8.242;2023-02-08T05:08:47;3.13;;;2.80;;
8260;SDS011;64115;50.170;8.242;2023-02-08T05:11:18;5.27;;;3.67;;
8260;SDS011;64115;50.170;8.242;2023-02-08T05:13:47;4.70;;;3.67;;
8260;SDS011;64115;50.170;8.242;2023-02-08T05:16:16;5.43;;;3.87;;
8260;SDS011;64115;50.170;8.242;2023-02-08T05:18:43;5.47;;;3.50;;
8260;SDS011;64115;50.170;8.242;2023-02-08T05:21:11;4.97;;;3.53;;
8260;SDS011;64115;50.170;8.242;2023-02-08T05:23:38;4.40;;;3.50;;
8260;SDS011;64115;50.170;8.242;2023-02-08T05:26:05;6.90;;;3.30;;
8260;SDS011;64115;50.170;8.242;2023-02-08T05:28:33;5.40;;;3.60;;
8260;SDS011;64115;50.170;8.242;2023-02-08T05:31:08;3.90;;;3.30;;
8260;SDS011;64115;50.170;8.242;2023-02-08T05:33:36;4.93;;;3.60;;
8260;SDS011;64115;50.170;8.242;2023-02-08T05:36:04;3.70;;;3.30;;
8260;SDS011;64115;50.170;8.242;2023-02-08T05:38:31;4.20;;;3.47;;
8260;SDS011;64115;50.170;8.242;2023-02-08T05:40:59;4.17;;;3.50;;
8260;SDS011;64115;50.170;8.242;2023-02-08T05:43:26;3.60;;;3.30;;
8260;SDS011;64115;50.170;8.242;2023-02-08T05:45:53;4.80;;;3.57;;
8260;SDS011;64115;50.170;8.242;2023-02-08T05:48:22;6.10;;;3.80;;
8260;SDS011;64115;50.170;8.242;2023-02-08T05:50:49;6.83;;;3.50;;
8260;SDS011;64115;50.170;8.242;2023-02-08T05:53:16;4.37;;;3.60;;
8260;SDS011;64115;50.170;8.242;2023-02-08T05:55:43;5.40;;;4.17;;
8260;SDS011;64115;50.170;8.242;2023-02-08T05:58:12;5.17;;;3.93;;
8260;SDS011;64115;50.170;8.242;2023-02-08T06:00:40;5.50;;;3.87;;
8260;SDS011;64115;50.170;8.242;2023-02-08T06:03:07;4.47;;;3.37;;
8260;SDS011;64115;50.170;8.242;2023-02-08T06:05:37;6.20;;;3.70;;
8260;SDS011;64115;50.170;8.242;2023-02-08T06:08:06;3.97;;;3.67;;
8260;SDS011;64115;50.170;8.242;2023-02-08T06:10:33;4.10;;;3.60;;
8260;SDS011;64115;50.170;8.242;2023-02-08T06:13:01;4.57;;;3.63;;
8260;SDS011;64115;50.170;8.242;2023-02-08T06:15:29;5.10;;;3.60;;
8260;SDS011;64115;50.170;8.242;2023-02-08T06:17:56;6.20;;;4.03;;
8260;SDS011;64115;50.170;8.242;2023-02-08T06:20:23;5.03;;;3.90;;
8260;SDS011;64115;50.170;8.242;2023-02-08T06:22:53;5.00;;;3.80;;
8260;SDS011;64115;50.170;8.242;2023-02-08T06:25:20;5.37;;;3.80;;
8260;SDS011;64115;50.170;8.242;2023-02-08T06:27:47;4.30;;;3.83;;
8260;SDS011;64115;50.170;8.242;2023-02-08T06:30:14;5.20;;;4.00;;
8260;SDS011;64115;50.170;8.242;2023-02-08T06:32:42;5.00;;;4.30;;
8260;SDS011;64115;50.170;8.242;2023-02-08T06:35:09;4.37;;;3.73;;
8260;SDS011;64115;50.170;8.242;2023-02-08T06:37:36;4.90;;;3.60;;
8260;SDS011;64115;50.170;8.242;2023-02-08T06:40:05;5.90;;;4.07;;
8260;SDS011;64115;50.170;8.242;2023-02-08T06:42:33;7.53;;;3.80;;
8260;SDS011;64115;50.170;8.242;2023-02-08T06:45:00;4.10;;;3.70;;
8260;SDS011;64115;50.170;8.242;2023-02-08T06:47:27;4.60;;;3.63;;
8260;SDS011;64115;50.170;8.242;2023-02-08T06:49:55;4.57;;;3.60;;
8260;SDS011;64115;50.170;8.242;2023-02-08T06:52:22;5.27;;;3.80;;
8260;SDS011;64115;50.170;8.242;2023-02-08T06:54:49;4.20;;;3.80;;
8260;SDS011;64115;50.170;8.242;2023-02-08T06:57:17;5.20;;;3.70;;
8260;SDS011;64115;50.170;8.242;2023-02-08T06:59:44;7.17;;;3.80;;
8260;SDS011;64115;50.170;8.242;2023-02-08T07:02:12;4.50;;;3.63;;
8260;SDS011;64115;50.170;8.242;2023-02-08T07:04:40;4.60;;;3.60;;
8260;SDS011;64115;50.170;8.242;2023-02-08T07:07:08;4.70;;;3.70;;
8260;SDS011;64115;50.170;8.242;2023-02-08T07:09:35;5.27;;;4.00;;
8260;SDS011;64115;50.170;8.242;2023-02-08T07:12:02;4.43;;;4.03;;
8260;SDS011;64115;50.170;8.242;2023-02-08T07:14:32;4.43;;;3.70;;
8260;SDS011;64115;50.170;8.242;2023-02-08T07:17:00;4.77;;;3.83;;
8260;SDS011;64115;50.170;8.242;2023-02-08T07:19:27;4.57;;;4.00;;
8260;SDS011;64115;50.170;8.242;2023-02-08T07:21:54;6.03;;;4.20;;
8260;SDS011;64115;50.170;8.242;2023-02-08T07:24:23;5.03;;;4.10;;
8260;SDS011;64115;50.170;8.242;2023-02-08T07:26:50;6.33;;;4.03;;
8260;SDS011;64115;50.170;8.242;2023-02-08T07:29:17;5.63;;;3.97;;
8260;SDS011;64115;50.170;8.242;2023-02-08T07:31:45;5.83;;;3.87;;
8260;SDS011;64115;50.170;8.242;2023-02-08T07:34:12;4.87;;;3.70;;
8260;SDS011;64115;50.170;8.242;2023-02-08T07:36:45;4.63;;;3.97;;
8260;SDS011;64115;50.170;8.242;2023-02-08T07:39:12;6.40;;;4.23;;
8260;SDS011;64115;50.170;8.242;2023-02-08T07:41:39;6.77;;;4.17;;
8260;SDS011;64115;50.170;8.242;2023-02-08T07:44:06;5.37;;;3.87;;
8260;SDS011;64115;50.170;8.242;2023-02-08T07:46:33;4.87;;;3.57;;
8260;SDS011;64115;50.170;8.242;2023-02-08T07:49:02;4.70;;;3.90;;
8260;SDS011;64115;50.170;8.242;2023-02-08T07:51:29;5.70;;;4.00;;
8260;SDS011;64115;50.170;8.242;2023-02-08T07:53:56;5.27;;;3.77;;
8260;SDS011;64115;50.170;8.242;2023-02-08T07:56:23;5.57;;;3.70;;
8260;SDS011;64115;50.170;8.242;2023-02-08T07:58:50;5.20;;;3.87;;
8260;SDS011;64115;50.170;8.242;2023-02-08T08:01:17;7.03;;;3.93;;
8260;SDS011;64115;50.170;8.242;2023-02-08T08:03:44;5.93;;;4.60;;
8260;SDS011;64115;50.170;8.242;2023-02-08T08:06:12;5.87;;;4.13;;
8260;SDS011;64115;50.170;8.242;2023-02-08T08:08:39;4.73;;;3.93;;
8260;SDS011;64115;50.170;8.242;2023-02-08T08:11:07;6.97;;;4.50;;
8260;SDS011;64115;50.170;8.242;2023-02-08T08:13:34;7.37;;;4.80;;
8260;SDS011;64115;50.170;8.242;2023-02-08T08:16:01;5.70;;;4.33;;
8260;SDS011;64115;50.170;8.242;2023-02-08T08:18:28;5.87;;;3.93;;
8260;SDS011;64115;50.170;8.242;2023-02-08T08:20:55;6.20;;;4.37;;
8260;SDS011;64115;50.170;8.242;2023-02-08T08:23:24;6.40;;;4.50;;
8260;SDS011;64115;50.170;8.242;2023-02-08T08:25:53;4.90;;;4.40;;
8260;SDS011;64115;50.170;8.242;2023-02-08T08:28:20;6.67;;;4.40;;
8260;SDS011;64115;50.170;8.242;2023-02-08T08:30:50;7.87;;;4.60;;
8260;SDS011;64115;50.170;8.242;2023-02-08T08:33:17;6.93;;;5.00;;
8260;SDS011;64115;50.170;8.242;2023-02-08T08:35:44;5.13;;;4.03;;
8260;SDS011;64115;50.170;8.242;2023-02-08T08:38:11;6.33;;;4.47;;
8260;SDS011;64115;50.170;8.242;2023-02-08T08:40:39;5.83;;;4.80;;
8260;SDS011;64115;50.170;8.242;2023-02-08T08:43:06;6.43;;;4.00;;
8260;SDS011;64115;50.170;8.242;2023-02-08T08:45:33;5.30;;;4.00;;
8260;SDS011;64115;50.170;8.242;2023-02-08T08:48:00;7.87;;;4.93;;
8260;SDS011;64115;50.170;8.242;2023-02-08T08:50:28;7.10;;;4.30;;
8260;SDS011;64115;50.170;8.242;2023-02-08T08:52:56;6.67;;;4.90;;
8260;SDS011;64115;50.170;8.242;2023-02-08T08:55:23;5.93;;;4.67;;
8260;SDS011;64115;50.170;8.242;2023-02-08T08:57:53;5.87;;;4.93;;
8260;SDS011;64115;50.170;8.242;2023-02-08T09:00:20;5.77;;;4.53;;
8260;SDS011;64115;50.170;8.242;2023-02-08T09:02:47;5.50;;;4.53;;
8260;SDS011;64115;50.170;8.242;2023-02-08T09:05:14;5.50;;;4.37;;
8260;SDS011;64115;50.170;8.242;2023-02-08T09:07:41;7.73;;;5.53;;
8260;SDS011;64115;50.170;8.242;2023-02-08T09:10:08;7.03;;;4.87;;
8260;SDS011;64115;50.170;8.242;2023-02-08T09:12:35;6.40;;;4.03;;
8260;SDS011;64115;50.170;8.242;2023-02-08T09:15:04;7.07;;;4.40;;
8260;SDS011;64115;50.170;8.242;2023-02-08T09:17:32;5.50;;;4.33;;
8260;SDS011;64115;50.170;8.242;2023-02-08T09:19:59;5.47;;;4.20;;
8260;SDS011;64115;50.170;8.242;2023-02-08T09:22:26;6.77;;;4.87;;
8260;SDS011;64115;50.170;8.242;2023-02-08T09:24:53;6.00;;;4.77;;
8260;SDS011;64115;50.170;8.242;2023-02-08T09:27:20;5.67;;;4.73;;
8260;SDS011;64115;50.170;8.242;2023-02-08T09:29:47;4.43;;;4.03;;
8260;SDS011;64115;50.170;8.242;2023-02-08T09:32:16;4.23;;;3.57;;
8260;SDS011;64115;50.170;8.242;2023-02-08T09:34:45;3.97;;;3.57;;
8260;SDS011;64115;50.170;8.242;2023-02-08T09:37:12;5.73;;;4.03;;
8260;SDS011;64115;50.170;8.242;2023-02-08T09:39:41;7.57;;;4.70;;
8260;SDS011;64115;50.170;8.242;2023-02-08T09:47:58;5.10;;;4.60;;
8260;SDS011;64115;50.170;8.242;2023-02-08T09:50:33;5.07;;;4.40;;
8260;SDS011;64115;50.170;8.242;2023-02-08T09:53:06;6.00;;;4.37;;
8260;SDS011;64115;50.170;8.242;2023-02-08T09:55:39;5.27;;;4.20;;
8260;SDS011;64115;50.170;8.242;2023-02-08T09:58:14;4.93;;;4.40;;
8260;SDS011;64115;50.170;8.242;2023-02-08T10:00:46;5.43;;;4.20;;
8260;SDS011;64115;50.170;8.242;2023-02-08T10:03:22;6.23;;;5.07;;
8260;SDS011;64115;50.170;8.242;2023-02-08T10:05:57;6.77;;;4.57;;
8260;SDS011;64115;50.170;8.242;2023-02-08T10:08:26;4.80;;;3.70;;
8260;SDS011;64115;50.170;8.242;2023-02-08T10:10:58;3.87;;;3.37;;
8260;SDS011;64115;50.170;8.242;2023-02-08T10:13:44;4.47;;;3.03;;
8260;SDS011;64115;50.170;8.242;2023-02-08T10:16:31;4.40;;;3.77;;
8260;SDS011;64115;50.170;8.242;2023-02-08T10:19:18;5.13;;;4.10;;
8260;SDS011;64115;50.170;8.242;2023-02-08T10:21:55;5.50;;;4.13;;
8260;SDS011;64115;50.170;8.242;2023-02-08T10:24:36;5.17;;;3.23;;
8260;SDS011;64115;50.170;8.242;2023-02-08T10:27:19;3.30;;;3.00;;
8260;SDS011;64115;50.170;8.242;2023-02-08T10:30:02;4.10;;;3.00;;
8260;SDS011;64115;50.170;8.242;2023-02-08T10:32:48;5.37;;;3.47;;
8260;SDS011;64115;50.170;8.242;2023-02-08T10:35:23;6.23;;;4.07;;
8260;SDS011;64115;50.170;8.242;2023-02-08T10:37:53;6.13;;;4.00;;
8260;SDS011;64115;50.170;8.242;2023-02-08T10:40:31;6.37;;;4.00;;
8260;SDS011;64115;50.170;8.242;2023-02-08T10:43:09;2.93;;;2.70;;
8260;SDS011;64115;50.170;8.242;2023-02-08T10:45:47;5.93;;;3.63;;
8260;SDS011;64115;50.170;8.242;2023-02-08T10:48:19;3.53;;;2.80;;
8260;SDS011;64115;50.170;8.242;2023-02-08T10:50:56;5.53;;;4.23;;
8260;SDS011;64115;50.170;8.242;2023-02-08T10:53:22;5.90;;;3.90;;
8260;SDS011;64115;50.170;8.242;2023-02-08T10:55:49;5.60;;;4.33;;
8260;SDS011;64115;50.170;8.242;2023-02-08T10:58:17;5.00;;;3.27;;
8260;SDS011;64115;50.170;8.242;2023-02-08T11:00:47;3.13;;;2.83;;
8260;SDS011;64115;50.170;8.242;2023-02-08T11:03:17;4.60;;;4.10;;
8260;SDS011;64115;50.170;8.242;2023-02-08T11:05:48;4.57;;;3.80;;
8260;SDS011;64115;50.170;8.242;2023-02-08T11:08:17;3.40;;;3.03;;
8260;SDS011;64115;50.170;8.242;2023-02-08T11:10:54;4.50;;;3.50;;
8260;SDS011;64115;50.170;8.242;2023-02-08T11:13:23;3.53;;;3.23;;
8260;SDS011;64115;50.170;8.242;2023-02-08T11:15:57;4.93;;;4.17;;
8260;SDS011;64115;50.170;8.242;2023-02-08T11:18:27;4.50;;;3.60;;
8260;SDS011;64115;50.170;8.242;2023-02-08T11:20:58;5.43;;;4.00;;
8260;SDS011;64115;50.170;8.242;2023-02-08T11:23:29;5.87;;;4.00;;
8260;SDS011;64115;50.170;8.242;2023-02-08T11:26:13;4.53;;;4.07;;
8260;SDS011;64115;50.170;8.242;2023-02-08T11:28:43;5.43;;;3.37;;
8260;SDS011;64115;50.170;8.242;2023-02-08T11:31:15;4.87;;;4.33;;
8260;SDS011;64115;50.170;8.242;2023-02-08T11:36:27;5.80;;;4.00;;
8260;SDS011;64115;50.170;8.242;2023-02-08T11:38:57;4.50;;;3.80;;
8260;SDS011;64115;50.170;8.242;2023-02-08T11:41:27;5.77;;;4.07;;
8260;SDS011;64115;50.170;8.242;2023-02-08T11:43:56;4.57;;;4.13;;
8260;SDS011;64115;50.170;8.242;2023-02-08T11:46:27;4.57;;;3.57;;
8260;SDS011;64115;50.170;8.242;2023-02-08T11:48:56;4.43;;;3.87;;
8260;SDS011;64115;50.170;8.242;2023-02-08T11:51:24;5.97;;;3.93;;
8260;SDS011;64115;50.170;8.242;2023-02-08T11:53:54;4.37;;;3.60;;
8260;SDS011;64115;50.170;8.242;2023-02-08T11:56:23;4.40;;;4.00;;
8260;SDS011;64115;50.170;8.242;2023-02-08T11:58:57;4.33;;;3.80;;
8260;SDS011;64115;50.170;8.242;2023-02-08T12:01:31;4.70;;;3.80;;
8260;SDS011;64115;50.170;8.242;2023-02-08T12:03:59;3.57;;;3.27;;
8260;SDS011;64115;50.170;8.242;2023-02-08T12:06:35;4.03;;;3.50;;
8260;SDS011;64115;50.170;8.242;2023-02-08T12:09:34;5.17;;;3.80;;
8260;SDS011;64115;50.170;8.242;2023-02-08T12:12:31;4.80;;;3.30;;
8260;SDS011;64115;50.170;8.242;2023-02-08T12:15:10;6.70;;;3.60;;
8260;SDS011;64115;50.170;8.242;2023-02-08T12:17:55;6.40;;;4.23;;
8260;SDS011;64115;50.170;8.242;2023-02-08T12:20:35;8.10;;;4.40;;
8260;SDS011;64115;50.170;8.242;2023-02-08T12:23:17;4.10;;;3.70;;
8260;SDS011;64115;50.170;8.242;2023-02-08T12:26:16;5.60;;;3.97;;
8260;SDS011;64115;50.170;8.242;2023-02-08T12:31:50;4.80;;;4.27;;
8260;SDS011;64115;50.170;8.242;2023-02-08T12:34:30;5.77;;;4.63;;
8260;SDS011;64115;50.170;8.242;2023-02-08T12:37:16;5.47;;;4.30;;
8260;SDS011;64115;50.170;8.242;2023-02-08T12:40:15;4.53;;;3.77;;
8260;SDS011;64115;50.170;8.242;2023-02-08T12:43:12;5.60;;;4.63;;
8260;SDS011;64115;50.170;8.242;2023-02-08T12:45:58;5.40;;;4.43;;
8260;SDS011;64115;50.170;8.242;2023-02-08T12:48:39;6.37;;;4.03;;
8260;SDS011;64115;50.170;8.242;2023-02-08T12:51:20;6.13;;;3.80;;
8260;SDS011;64115;50.170;8.242;2023-02-08T12:53:56;5.23;;;4.30;;
8260;SDS011;64115;50.170;8.242;2023-02-08T12:56:26;5.63;;;4.13;;
8260;SDS011;64115;50.170;8.242;2023-02-08T12:58:59;11.07;;;4.20;;
8260;SDS011;64115;50.170;8.242;2023-02-08T13:01:30;8.37;;;4.90;;
8260;SDS011;64115;50.170;8.242;2023-02-08T13:04:01;6.00;;;4.67;;
8260;SDS011;64115;50.170;8.242;2023-02-08T13:06:34;5.90;;;4.63;;
8260;SDS011;64115;50.170;8.242;2023-02-08T13:09:05;5.73;;;4.67;;
8260;SDS011;64115;50.170;8.242;2023-02-08T13:11:41;5.07;;;4.00;;
8260;SDS011;64115;50.170;8.242;2023-02-08T13:14:14;6.20;;;5.27;;
8260;SDS011;64115;50.170;8.242;2023-02-08T13:16:54;6.83;;;5.00;;
8260;SDS011;64115;50.170;8.242;2023-02-08T13:19:25;6.67;;;4.83;;
8260;SDS011;64115;50.170;8.242;2023-02-08T13:21:56;5.80;;;4.80;;
8260;SDS011;64115;50.170;8.242;2023-02-08T13:24:27;6.23;;;4.77;;
8260;SDS011;64115;50.170;8.242;2023-02-08T13:26:58;6.30;;;5.07;;
8260;SDS011;64115;50.170;8.242;2023-02-08T13:29:25;7.17;;;5.33;;
8260;SDS011;64115;50.170;8.242;2023-02-08T13:31:57;7.80;;;4.93;;
8260;SDS011;64115;50.170;8.242;2023-02-08T13:34:27;6.23;;;4.17;;
8260;SDS011;64115;50.170;8.242;2023-02-08T13:36:59;5.03;;;4.30;;
8260;SDS011;64115;50.170;8.242;2023-02-08T13:39:30;6.40;;;4.97;;
8260;SDS011;64115;50.170;8.242;2023-02-08T13:42:01;7.90;;;5.30;;
8260;SDS011;64115;50.170;8.242;2023-02-08T13:44:30;6.57;;;4.90;;
8260;SDS011;64115;50.170;8.242;2023-02-08T13:47:02;5.90;;;4.80;;
8260;SDS011;64115;50.170;8.242;2023-02-08T13:49:51;6.70;;;4.80;;
8260;SDS011;64115;50.170;8.242;2023-02-08T14:01:31;6.37;;;5.03;;
8260;SDS011;64115;50.170;8.242;2023-02-08T14:04:25;5.90;;;4.63;;
8260;SDS011;64115;50.170;8.242;2023-02-08T14:06:59;5.77;;;4.53;;
8260;SDS011;64115;50.170;8.242;2023-02-08T14:09:43;6.40;;;5.20;;
8260;SDS011;64115;50.170;8.242;2023-02-08T14:12:19;6.37;;;4.80;;
8260;SDS011;64115;50.170;8.242;2023-02-08T14:17:50;6.10;;;4.37;;
8260;SDS011;64115;50.170;8.242;2023-02-08T14:20:23;6.43;;;4.70;;
8260;SDS011;64115;50.170;8.242;2023-02-08T14:22:54;7.07;;;4.73;;
8260;SDS011;64115;50.170;8.242;2023-02-08T14:25:23;6.37;;;5.27;;
8260;SDS011;64115;50.170;8.242;2023-02-08T14:27:53;7.90;;;5.13;;
8260;SDS011;64115;50.170;8.242;2023-02-08T14:30:23;6.30;;;4.70;;
8260;SDS011;64115;50.170;8.242;2023-02-08T14:32:53;7.03;;;4.77;;
8260;SDS011;64115;50.170;8.242;2023-02-08T14:35:40;6.60;;;5.23;;
8260;SDS011;64115;50.170;8.242;2023-02-08T14:38:48;6.10;;;4.47;;
8260;SDS011;64115;50.170;8.242;2023-02-08T14:50:40;5.50;;;4.10;;
8260;SDS011;64115;50.170;8.242;2023-02-08T14:53:15;5.97;;;4.50;;
8260;SDS011;64115;50.170;8.242;2023-02-08T14:55:51;6.53;;;5.17;;
8260;SDS011;64115;50.170;8.242;2023-02-08T14:58:26;6.60;;;4.77;;
8260;SDS011;64115;50.170;8.242;2023-02-08T15:00:56;5.77;;;4.70;;
8260;SDS011;64115;50.170;8.242;2023-02-08T15:03:28;8.07;;;4.60;;
8260;SDS011;64115;50.170;8.242;2023-02-08T15:08:59;5.30;;;4.80;;
8260;SDS011;64115;50.170;8.242;2023-02-08T15:11:28;6.20;;;4.60;;
8260;SDS011;64115;50.170;8.242;2023-02-08T15:13:57;6.13;;;4.77;;
8260;SDS011;64115;50.170;8.242;2023-02-08T15:16:28;7.33;;;4.87;;
8260;SDS011;64115;50.170;8.242;2023-02-08T15:18:59;6.03;;;4.73;;
8260;SDS011;64115;50.170;8.242;2023-02-08T15:21:29;6.03;;;5.07;;
8260;SDS011;64115;50.170;8.242;2023-02-08T15:24:03;7.53;;;4.97;;
8260;SDS011;64115;50.170;8.242;2023-02-08T15:26:32;5.20;;;4.20;;
8260;SDS011;64115;50.170;8.242;2023-02-08T15:28:59;5.80;;;4.50;;
8260;SDS011;64115;50.170;8.242;2023-02-08T15:31:29;5.20;;;4.30;;
8260;SDS011;64115;50.170;8.242;2023-02-08T15:33:58;4.33;;;3.73;;
8260;SDS011;64115;50.170;8.242;2023-02-08T15:36:27;5.23;;;4.17;;
8260;SDS011;64115;50.170;8.242;2023-02-08T15:38:56;6.27;;;4.47;;
8260;SDS011;64115;50.170;8.242;2023-02-08T15:41:27;5.80;;;4.27;;
8260;SDS011;64115;50.170;8.242;2023-02-08T15:44:00;4.87;;;4.00;;
8260;SDS011;64115;50.170;8.242;2023-02-08T15:46:28;5.57;;;4.40;;
8260;SDS011;64115;50.170;8.242;2023-02-08T15:48:57;7.03;;;3.73;;
8260;SDS011;64115;50.170;8.242;2023-02-08T15:51:25;5.43;;;3.90;;
8260;SDS011;64115;50.170;8.242;2023-02-08T15:53:53;5.23;;;3.90;;
8260;SDS011;64115;50.170;8.242;2023-02-08T15:56:23;4.57;;;3.80;;
8260;SDS011;64115;50.170;8.242;2023-02-08T15:58:54;4.93;;;3.90;;
8260;SDS011;64115;50.170;8.242;2023-02-08T16:01:23;4.40;;;3.53;;
8260;SDS011;64115;50.170;8.242;2023-02-08T16:03:50;5.40;;;4.20;;
8260;SDS011;64115;50.170;8.242;2023-02-08T16:06:22;7.33;;;4.33;;
8260;SDS011;64115;50.170;8.242;2023-02-08T16:08:51;6.07;;;4.50;;
8260;SDS011;64115;50.170;8.242;2023-02-08T16:11:21;5.07;;;4.30;;